sensor_id;sensor_type;location;lat;lon;timestamp;pressure;altitude;pressure_sealevel;temperature;humidity
43621;BME280;29213;50.770;7.298;2024-03-22T00:01:44;101558.91;;;8.87;59.88
43621;BME280;29213;50.770;7.298;2024-03-22T00:04:11;101505.78;;;8.54;60.04
43621;BME280;29213;50.770;7.298;2024-03-22T00:06:36;101489.78;;;8.44;60.20
43621;BME280;29213;50.770;7.298;2024-03-22T00:09:02;101547.69;;;8.83;60.23
43621;BME280;29213;50.770;7.298;2024-03-22T00:11:27;101506.06;;;8.51;60.04
43621;BME280;29213;50.770;7.298;2024-03-22T00:13:53;101548.22;;;8.77;60.37
43621;BME280;29213;50.770;7.298;2024-03-22T00:16:18;101474.91;;;8.32;60.27
43621;BME280;29213;50.770;7.298;2024-03-22T00:18:44;101547.97;;;8.68;60.62
43621;BME280;29213;50.770;7.298;2024-03-22T00:21:09;101459.19;;;8.07;60.73
43621;BME280;29213;50.770;7.298;2024-03-22T00:23:34;101481.69;;;8.24;60.88
43621;BME280;29213;50.770;7.298;2024-03-22T00:26:00;101542.97;;;8.54;61.00
43621;BME280;29213;50.770;7.298;2024-03-22T00:28:25;101538.75;;;8.51;60.97
43621;BME280;29213;50.770;7.298;2024-03-22T00:30:51;101447.59;;;7.97;60.73
43621;BME280;29213;50.770;7.298;2024-03-22T00:33:16;101531.63;;;8.52;60.92
43621;BME280;29213;50.770;7.298;2024-03-22T00:35:42;101486.41;;;8.21;60.77
43621;BME280;29213;50.770;7.298;2024-03-22T00:38:07;101477.47;;;8.22;60.98
43621;BME280;29213;50.770;7.298;2024-03-22T00:40:33;101468.78;;;8.20;60.69
43621;BME280;29213;50.770;7.298;2024-03-22T00:42:58;101487.31;;;8.31;60.68
43621;BME280;29213;50.770;7.298;2024-03-22T00:45:23;101483.94;;;8.29;60.60
43621;BME280;29213;50.770;7.298;2024-03-22T00:47:49;101521.28;;;8.49;60.88
43621;BME280;29213;50.770;7.298;2024-03-22T00:50:14;101480.59;;;8.27;60.91
43621;BME280;29213;50.770;7.298;2024-03-22T00:52:40;101406.69;;;7.78;60.78
43621;BME280;29213;50.770;7.298;2024-03-22T00:55:06;101444.13;;;8.08;60.60
43621;BME280;29213;50.770;7.298;2024-03-22T00:57:31;101424.97;;;7.93;60.87
43621;BME280;29213;50.770;7.298;2024-03-22T00:59:57;101500.81;;;8.39;61.10
43621;BME280;29213;50.770;7.298;2024-03-22T01:02:22;101497.28;;;8.39;61.41
43621;BME280;29213;50.770;7.298;2024-03-22T01:04:48;101456.03;;;8.13;61.58
43621;BME280;29213;50.770;7.298;2024-03-22T01:07:13;101423.25;;;7.92;61.79
43621;BME280;29213;50.770;7.298;2024-03-22T01:09:39;101377.94;;;7.62;61.81
43621;BME280;29213;50.770;7.298;2024-03-22T01:12:05;101461.31;;;8.13;61.59
43621;BME280;29213;50.770;7.298;2024-03-22T01:14:30;101434.34;;;7.97;61.34
43621;BME280;29213;50.770;7.298;2024-03-22T01:16:56;101471.19;;;8.23;61.48
43621;BME280;29213;50.770;7.298;2024-03-22T01:19:22;101472.16;;;8.22;61.31
43621;BME280;29213;50.770;7.298;2024-03-22T01:21:49;101489.97;;;8.31;61.54
43621;BME280;29213;50.770;7.298;2024-03-22T01:24:14;101422.91;;;7.96;61.49
43621;BME280;29213;50.770;7.298;2024-03-22T01:26:39;101393.53;;;7.76;61.49
43621;BME280;29213;50.770;7.298;2024-03-22T01:29:05;101470.09;;;8.25;61.55
43621;BME280;29213;50.770;7.298;2024-03-22T01:31:30;101368.53;;;7.58;61.51
43621;BME280;29213;50.770;7.298;2024-03-22T01:33:56;101386.09;;;7.70;61.58
43621;BME280;29213;50.770;7.298;2024-03-22T01:36:21;101464.84;;;8.14;61.59
43621;BME280;29213;50.770;7.298;2024-03-22T01:38:46;101390.06;;;7.65;61.88
43621;BME280;29213;50.770;7.298;2024-03-22T01:41:12;101393.38;;;7.57;61.36
43621;BME280;29213;50.770;7.298;2024-03-22T01:43:37;101315.97;;;7.07;62.00
43621;BME280;29213;50.770;7.298;2024-03-22T01:46:04;101395.53;;;7.52;61.80
43621;BME280;29213;50.770;7.298;2024-03-22T01:48:29;101454.50;;;7.88;62.06
43621;BME280;29213;50.770;7.298;2024-03-22T01:50:55;101382.91;;;7.44;62.26
43621;BME280;29213;50.770;7.298;2024-03-22T01:53:21;101450.41;;;7.84;62.42
43621;BME280;29213;50.770;7.298;2024-03-22T01:55:47;101434.41;;;7.74;62.32
43621;BME280;29213;50.770;7.298;2024-03-22T01:58:12;101393.47;;;7.55;62.02
43621;BME280;29213;50.770;7.298;2024-03-22T02:00:38;101409.59;;;7.63;62.53
43621;BME280;29213;50.770;7.298;2024-03-22T02:03:04;101327.06;;;7.13;62.18
43621;BME280;29213;50.770;7.298;2024-03-22T02:05:30;101424.06;;;7.71;62.19
43621;BME280;29213;50.770;7.298;2024-03-22T02:07:55;101375.94;;;7.43;62.18
43621;BME280;29213;50.770;7.298;2024-03-22T02:10:21;101389.75;;;7.58;62.52
43621;BME280;29213;50.770;7.298;2024-03-22T02:12:46;101404.75;;;7.69;62.49
43621;BME280;29213;50.770;7.298;2024-03-22T02:15:12;101361.69;;;7.44;62.64
43621;BME280;29213;50.770;7.298;2024-03-22T02:17:37;101418.25;;;7.77;62.60
43621;BME280;29213;50.770;7.298;2024-03-22T02:20:03;101394.66;;;7.62;62.49
43621;BME280;29213;50.770;7.298;2024-03-22T02:22:31;101401.75;;;7.73;62.85
43621;BME280;29213;50.770;7.298;2024-03-22T02:24:57;101400.06;;;7.72;62.55
43621;BME280;29213;50.770;7.298;2024-03-22T02:27:22;101326.69;;;7.29;62.83
43621;BME280;29213;50.770;7.298;2024-03-22T02:29:48;101319.34;;;7.21;62.87
43621;BME280;29213;50.770;7.298;2024-03-22T02:32:13;101351.34;;;7.41;62.95
43621;BME280;29213;50.770;7.298;2024-03-22T02:34:38;101365.41;;;7.53;62.91
43621;BME280;29213;50.770;7.298;2024-03-22T02:37:04;101337.59;;;7.35;62.84
43621;BME280;29213;50.770;7.298;2024-03-22T02:39:29;101306.09;;;7.21;63.14
43621;BME280;29213;50.770;7.298;2024-03-22T02:41:55;101337.03;;;7.32;62.93
43621;BME280;29213;50.770;7.298;2024-03-22T02:44:21;101383.81;;;7.66;63.38
43621;BME280;29213;50.770;7.298;2024-03-22T02:46:47;101370.31;;;7.57;62.92
43621;BME280;29213;50.770;7.298;2024-03-22T02:49:12;101306.09;;;7.21;62.83
43621;BME280;29213;50.770;7.298;2024-03-22T02:51:38;101379.22;;;7.68;62.98
43621;BME280;29213;50.770;7.298;2024-03-22T02:54:04;101323.66;;;7.33;63.01
43621;BME280;29213;50.770;7.298;2024-03-22T02:56:29;101365.97;;;7.68;63.04
43621;BME280;29213;50.770;7.298;2024-03-22T02:58:55;101289.13;;;7.23;62.71
43621;BME280;29213;50.770;7.298;2024-03-22T03:01:20;101276.38;;;7.17;62.54
43621;BME280;29213;50.770;7.298;2024-03-22T03:03:46;101348.75;;;7.62;62.63
43621;BME280;29213;50.770;7.298;2024-03-22T03:06:11;101322.41;;;7.49;63.08
43621;BME280;29213;50.770;7.298;2024-03-22T03:08:39;101251.78;;;7.15;62.93
43621;BME280;29213;50.770;7.298;2024-03-22T03:11:04;101283.44;;;7.28;62.96
43621;BME280;29213;50.770;7.298;2024-03-22T03:13:29;101311.66;;;7.50;62.76
43621;BME280;29213;50.770;7.298;2024-03-22T03:15:56;101257.94;;;7.16;63.12
43621;BME280;29213;50.770;7.298;2024-03-22T03:18:21;101328.72;;;7.69;63.15
43621;BME280;29213;50.770;7.298;2024-03-22T03:20:47;101227.88;;;7.05;63.22
43621;BME280;29213;50.770;7.298;2024-03-22T03:23:12;101317.19;;;7.59;63.16
43621;BME280;29213;50.770;7.298;2024-03-22T03:25:38;101332.19;;;7.70;63.33
43621;BME280;29213;50.770;7.298;2024-03-22T03:28:03;101306.81;;;7.56;63.41
43621;BME280;29213;50.770;7.298;2024-03-22T03:30:29;101331.25;;;7.71;63.06
43621;BME280;29213;50.770;7.298;2024-03-22T03:32:54;101320.69;;;7.59;63.53
43621;BME280;29213;50.770;7.298;2024-03-22T03:35:19;101311.66;;;7.62;63.25
43621;BME280;29213;50.770;7.298;2024-03-22T03:37:45;101267.78;;;7.25;63.48
43621;BME280;29213;50.770;7.298;2024-03-22T03:40:10;101229.03;;;7.13;63.17
43621;BME280;29213;50.770;7.298;2024-03-22T03:42:36;101286.97;;;7.50;63.16
43621;BME280;29213;50.770;7.298;2024-03-22T03:45:01;101302.00;;;7.61;63.12
43621;BME280;29213;50.770;7.298;2024-03-22T03:47:26;101302.56;;;7.65;62.71
43621;BME280;29213;50.770;7.298;2024-03-22T03:49:52;101313.00;;;7.77;63.03
43621;BME280;29213;50.770;7.298;2024-03-22T03:52:17;101284.78;;;7.55;62.97
43621;BME280;29213;50.770;7.298;2024-03-22T03:54:43;101253.53;;;7.38;63.20
43621;BME280;29213;50.770;7.298;2024-03-22T03:57:09;101269.25;;;7.50;62.97
43621;BME280;29213;50.770;7.298;2024-03-22T03:59:34;101310.34;;;7.77;63.20
43621;BME280;29213;50.770;7.298;2024-03-22T04:02:00;101225.03;;;7.30;63.14
43621;BME280;29213;50.770;7.298;2024-03-22T04:04:25;101219.25;;;7.25;63.10
43621;BME280;29213;50.770;7.298;2024-03-22T04:06:50;101254.47;;;7.48;63.28
43621;BME280;29213;50.770;7.298;2024-03-22T04:09:16;101227.16;;;7.36;63.45
43621;BME280;29213;50.770;7.298;2024-03-22T04:11:41;101263.47;;;7.57;63.27
43621;BME280;29213;50.770;7.298;2024-03-22T04:14:06;101287.34;;;7.78;63.50
43621;BME280;29213;50.770;7.298;2024-03-22T04:16:32;101215.47;;;7.39;63.34
43621;BME280;29213;50.770;7.298;2024-03-22T04:18:57;101249.25;;;7.58;63.50
43621;BME280;29213;50.770;7.298;2024-03-22T04:21:23;101256.81;;;7.62;63.50
43621;BME280;29213;50.770;7.298;2024-03-22T04:23:48;101167.53;;;7.09;63.68
43621;BME280;29213;50.770;7.298;2024-03-22T04:26:14;101301.59;;;7.98;63.46
43621;BME280;29213;50.770;7.298;2024-03-22T04:28:39;101296.16;;;8.00;63.92
43621;BME280;29213;50.770;7.298;2024-03-22T04:31:06;101280.19;;;7.90;63.87
43621;BME280;29213;50.770;7.298;2024-03-22T04:33:36;101291.56;;;8.02;63.81
43621;BME280;29213;50.770;7.298;2024-03-22T04:36:02;101261.28;;;7.83;64.12
43621;BME280;29213;50.770;7.298;2024-03-22T04:38:28;101241.94;;;7.71;64.17
43621;BME280;29213;50.770;7.298;2024-03-22T04:40:55;101284.34;;;8.04;64.28
43621;BME280;29213;50.770;7.298;2024-03-22T04:43:20;101276.41;;;8.04;64.12
43621;BME280;29213;50.770;7.298;2024-03-22T04:45:46;101202.97;;;7.62;64.38
43621;BME280;29213;50.770;7.298;2024-03-22T04:48:14;101201.97;;;7.63;64.45
43621;BME280;29213;50.770;7.298;2024-03-22T04:50:39;101111.78;;;7.11;64.11
43621;BME280;29213;50.770;7.298;2024-03-22T04:53:05;101199.91;;;7.67;64.28
43621;BME280;29213;50.770;7.298;2024-03-22T04:55:31;101234.94;;;7.92;64.35
43621;BME280;29213;50.770;7.298;2024-03-22T04:57:58;101180.19;;;7.59;64.33
43621;BME280;29213;50.770;7.298;2024-03-22T05:00:23;101212.25;;;7.77;64.37
43621;BME280;29213;50.770;7.298;2024-03-22T05:02:51;101075.88;;;6.96;64.46
43621;BME280;29213;50.770;7.298;2024-03-22T05:05:16;101190.84;;;7.69;64.55
43621;BME280;29213;50.770;7.298;2024-03-22T05:07:41;101250.28;;;8.09;64.47
43621;BME280;29213;50.770;7.298;2024-03-22T05:10:07;101246.69;;;8.10;64.47
43621;BME280;29213;50.770;7.298;2024-03-22T05:12:34;101194.66;;;7.76;64.73
43621;BME280;29213;50.770;7.298;2024-03-22T05:14:59;101217.22;;;7.92;64.54
43621;BME280;29213;50.770;7.298;2024-03-22T05:17:24;101237.03;;;8.09;64.67
43621;BME280;29213;50.770;7.298;2024-03-22T05:19:50;101161.13;;;7.66;64.71
43621;BME280;29213;50.770;7.298;2024-03-22T05:22:15;101193.03;;;7.85;64.24
43621;BME280;29213;50.770;7.298;2024-03-22T05:24:41;101225.47;;;8.10;64.51
43621;BME280;29213;50.770;7.298;2024-03-22T05:27:06;101142.81;;;7.62;64.55
43621;BME280;29213;50.770;7.298;2024-03-22T05:29:31;101184.81;;;7.88;64.57
43621;BME280;29213;50.770;7.298;2024-03-22T05:31:57;101163.56;;;7.79;64.39
43621;BME280;29213;50.770;7.298;2024-03-22T05:34:22;101216.13;;;8.16;64.72
43621;BME280;29213;50.770;7.298;2024-03-22T05:36:48;101189.47;;;7.96;64.65
43621;BME280;29213;50.770;7.298;2024-03-22T05:39:14;101154.06;;;7.76;64.90
43621;BME280;29213;50.770;7.298;2024-03-22T05:41:40;101225.09;;;8.25;64.38
43621;BME280;29213;50.770;7.298;2024-03-22T05:44:05;101227.50;;;8.28;64.88
43621;BME280;29213;50.770;7.298;2024-03-22T05:46:31;101155.34;;;7.82;64.75
43621;BME280;29213;50.770;7.298;2024-03-22T05:48:57;101217.56;;;8.30;64.99
43621;BME280;29213;50.770;7.298;2024-03-22T05:51:24;101146.84;;;7.88;64.77
43621;BME280;29213;50.770;7.298;2024-03-22T05:53:49;101142.25;;;7.90;64.78
43621;BME280;29213;50.770;7.298;2024-03-22T05:56:15;101158.78;;;8.03;65.34
43621;BME280;29213;50.770;7.298;2024-03-22T05:58:40;101208.25;;;8.36;65.04
43621;BME280;29213;50.770;7.298;2024-03-22T06:01:06;101141.91;;;8.05;64.94
43621;BME280;29213;50.770;7.298;2024-03-22T06:03:31;101161.50;;;8.13;64.74
43621;BME280;29213;50.770;7.298;2024-03-22T06:05:59;101112.94;;;7.92;64.82
43621;BME280;29213;50.770;7.298;2024-03-22T06:08:28;101125.09;;;7.94;64.99
43621;BME280;29213;50.770;7.298;2024-03-22T06:10:54;101169.13;;;8.28;64.96
43621;BME280;29213;50.770;7.298;2024-03-22T06:13:21;101201.06;;;8.58;64.86
43621;BME280;29213;50.770;7.298;2024-03-22T06:15:48;101193.22;;;8.56;64.72
43621;BME280;29213;50.770;7.298;2024-03-22T06:18:14;101195.78;;;8.67;64.44
43621;BME280;29213;50.770;7.298;2024-03-22T06:20:39;101137.41;;;8.36;64.49
43621;BME280;29213;50.770;7.298;2024-03-22T06:23:05;101080.78;;;8.06;64.51
43621;BME280;29213;50.770;7.298;2024-03-22T06:25:30;101148.47;;;8.51;64.61
43621;BME280;29213;50.770;7.298;2024-03-22T06:27:56;101163.47;;;8.72;64.50
43621;BME280;29213;50.770;7.298;2024-03-22T06:30:21;101124.03;;;8.48;64.58
43621;BME280;29213;50.770;7.298;2024-03-22T06:32:47;101122.09;;;8.50;64.61
43621;BME280;29213;50.770;7.298;2024-03-22T06:35:12;101196.66;;;8.98;64.76
43621;BME280;29213;50.770;7.298;2024-03-22T06:37:39;101184.91;;;9.00;64.55
43621;BME280;29213;50.770;7.298;2024-03-22T06:40:06;101144.91;;;8.72;64.16
43621;BME280;29213;50.770;7.298;2024-03-22T06:42:31;101164.75;;;8.98;64.07
43621;BME280;29213;50.770;7.298;2024-03-22T06:44:57;101072.91;;;8.46;64.19
43621;BME280;29213;50.770;7.298;2024-03-22T06:47:22;101179.88;;;9.17;64.02
43621;BME280;29213;50.770;7.298;2024-03-22T06:49:49;101163.50;;;9.12;63.68
43621;BME280;29213;50.770;7.298;2024-03-22T06:52:14;101159.19;;;9.10;63.91
43621;BME280;29213;50.770;7.298;2024-03-22T06:54:40;101142.81;;;9.05;63.56
43621;BME280;29213;50.770;7.298;2024-03-22T06:57:06;101116.69;;;8.91;63.42
43621;BME280;29213;50.770;7.298;2024-03-22T06:59:31;101139.88;;;9.18;63.35
43621;BME280;29213;50.770;7.298;2024-03-22T07:01:57;101102.69;;;8.99;63.27
43621;BME280;29213;50.770;7.298;2024-03-22T07:04:22;101086.47;;;8.92;63.30
43621;BME280;29213;50.770;7.298;2024-03-22T07:06:48;101097.50;;;9.07;63.39
43621;BME280;29213;50.770;7.298;2024-03-22T07:09:13;101112.63;;;9.16;63.32
43621;BME280;29213;50.770;7.298;2024-03-22T07:11:39;101109.66;;;9.19;63.33
43621;BME280;29213;50.770;7.298;2024-03-22T07:14:04;101099.44;;;9.25;63.17
43621;BME280;29213;50.770;7.298;2024-03-22T07:16:30;101134.44;;;9.49;63.53
43621;BME280;29213;50.770;7.298;2024-03-22T07:18:55;101088.13;;;9.22;62.90
43621;BME280;29213;50.770;7.298;2024-03-22T07:21:20;101066.31;;;9.09;63.09
43621;BME280;29213;50.770;7.298;2024-03-22T07:23:46;101059.59;;;9.15;63.05
43621;BME280;29213;50.770;7.298;2024-03-22T07:26:11;101101.38;;;9.42;62.70
43621;BME280;29213;50.770;7.298;2024-03-22T07:28:37;101078.00;;;9.36;62.68
43621;BME280;29213;50.770;7.298;2024-03-22T07:31:02;101092.84;;;9.48;62.64
43621;BME280;29213;50.770;7.298;2024-03-22T07:33:27;101134.19;;;9.81;62.35
43621;BME280;29213;50.770;7.298;2024-03-22T07:35:53;101125.41;;;9.70;61.30
43621;BME280;29213;50.770;7.298;2024-03-22T07:38:20;101082.03;;;9.60;61.08
43621;BME280;29213;50.770;7.298;2024-03-22T07:40:45;101073.06;;;9.71;61.29
43621;BME280;29213;50.770;7.298;2024-03-22T07:43:11;101103.94;;;10.10;61.28
43621;BME280;29213;50.770;7.298;2024-03-22T07:45:38;101067.53;;;10.10;59.88
43621;BME280;29213;50.770;7.298;2024-03-22T07:48:04;101107.84;;;10.62;60.50
43621;BME280;29213;50.770;7.298;2024-03-22T07:50:30;101108.25;;;10.85;60.31
43621;BME280;29213;50.770;7.298;2024-03-22T07:52:55;101059.25;;;10.78;59.72
43621;BME280;29213;50.770;7.298;2024-03-22T07:55:22;101006.03;;;10.68;58.66
43621;BME280;29213;50.770;7.298;2024-03-22T07:57:48;101113.31;;;11.59;58.45
43621;BME280;29213;50.770;7.298;2024-03-22T08:00:13;101093.19;;;11.73;58.00
43621;BME280;29213;50.770;7.298;2024-03-22T08:02:39;101073.53;;;11.74;57.31
43621;BME280;29213;50.770;7.298;2024-03-22T08:05:06;101096.25;;;11.87;56.89
43621;BME280;29213;50.770;7.298;2024-03-22T08:07:31;101057.84;;;11.71;56.89
43621;BME280;29213;50.770;7.298;2024-03-22T08:09:57;101123.41;;;12.09;56.07
43621;BME280;29213;50.770;7.298;2024-03-22T08:12:24;101122.59;;;12.08;55.68
43621;BME280;29213;50.770;7.298;2024-03-22T08:14:49;101047.47;;;11.60;56.55
43621;BME280;29213;50.770;7.298;2024-03-22T08:17:15;100998.16;;;11.38;55.64
43621;BME280;29213;50.770;7.298;2024-03-22T08:19:41;101063.69;;;11.75;55.50
43621;BME280;29213;50.770;7.298;2024-03-22T08:22:07;101122.75;;;12.07;55.57
43621;BME280;29213;50.770;7.298;2024-03-22T08:24:32;101054.47;;;11.69;55.02
43621;BME280;29213;50.770;7.298;2024-03-22T08:26:59;101118.09;;;12.17;55.66
43621;BME280;29213;50.770;7.298;2024-03-22T08:29:24;101106.94;;;12.22;55.77
43621;BME280;29213;50.770;7.298;2024-03-22T08:31:49;101053.63;;;12.03;55.21
43621;BME280;29213;50.770;7.298;2024-03-22T08:34:15;101108.84;;;12.54;55.27
43621;BME280;29213;50.770;7.298;2024-03-22T08:36:40;101103.22;;;12.66;54.14
43621;BME280;29213;50.770;7.298;2024-03-22T08:39:06;101062.94;;;12.67;54.32
43621;BME280;29213;50.770;7.298;2024-03-22T08:41:35;101049.25;;;12.87;53.45
43621;BME280;29213;50.770;7.298;2024-03-22T08:44:00;101071.78;;;13.26;53.13
43621;BME280;29213;50.770;7.298;2024-03-22T08:46:26;101042.91;;;13.21;52.99
43621;BME280;29213;50.770;7.298;2024-03-22T08:48:53;101035.75;;;13.05;53.10
43621;BME280;29213;50.770;7.298;2024-03-22T08:51:19;101001.00;;;12.72;52.44
43621;BME280;29213;50.770;7.298;2024-03-22T08:53:44;101025.84;;;12.89;52.49
43621;BME280;29213;50.770;7.298;2024-03-22T08:56:10;101008.31;;;12.87;53.17
43621;BME280;29213;50.770;7.298;2024-03-22T08:58:36;101011.69;;;13.05;53.87
43621;BME280;29213;50.770;7.298;2024-03-22T09:01:02;100998.41;;;13.29;53.42
43621;BME280;29213;50.770;7.298;2024-03-22T09:03:27;101064.09;;;13.88;51.89
43621;BME280;29213;50.770;7.298;2024-03-22T09:05:53;101069.06;;;13.91;51.54
43621;BME280;29213;50.770;7.298;2024-03-22T09:08:19;101059.13;;;13.76;51.03
43621;BME280;29213;50.770;7.298;2024-03-22T09:10:47;101053.19;;;13.49;51.51
43621;BME280;29213;50.770;7.298;2024-03-22T09:13:12;101054.84;;;13.59;52.37
43621;BME280;29213;50.770;7.298;2024-03-22T09:15:38;101008.41;;;13.43;52.24
43621;BME280;29213;50.770;7.298;2024-03-22T09:18:04;101040.72;;;13.73;52.34
43621;BME280;29213;50.770;7.298;2024-03-22T09:20:30;101034.16;;;13.84;51.91
43621;BME280;29213;50.770;7.298;2024-03-22T09:22:55;100999.78;;;13.65;52.20
43621;BME280;29213;50.770;7.298;2024-03-22T09:25:23;101054.31;;;14.03;51.17
43621;BME280;29213;50.770;7.298;2024-03-22T09:27:49;101010.78;;;13.78;51.58
43621;BME280;29213;50.770;7.298;2024-03-22T09:30:15;101013.94;;;13.73;50.07
43621;BME280;29213;50.770;7.298;2024-03-22T09:32:40;101034.47;;;13.89;50.70
43621;BME280;29213;50.770;7.298;2024-03-22T09:35:06;101003.31;;;13.57;52.73
43621;BME280;29213;50.770;7.298;2024-03-22T09:37:32;101043.47;;;13.97;52.83
43621;BME280;29213;50.770;7.298;2024-03-22T09:39:58;100987.75;;;13.60;52.63
43621;BME280;29213;50.770;7.298;2024-03-22T09:42:25;101016.13;;;13.78;51.27
43621;BME280;29213;50.770;7.298;2024-03-22T09:44:51;101038.28;;;13.95;51.90
43621;BME280;29213;50.770;7.298;2024-03-22T09:47:17;101034.25;;;13.99;52.02
43621;BME280;29213;50.770;7.298;2024-03-22T09:49:44;101041.44;;;13.99;51.08
43621;BME280;29213;50.770;7.298;2024-03-22T09:52:15;100920.50;;;13.32;50.94
43621;BME280;29213;50.770;7.298;2024-03-22T09:54:42;100981.84;;;13.73;51.47
43621;BME280;29213;50.770;7.298;2024-03-22T09:57:14;101032.69;;;14.13;51.75
43621;BME280;29213;50.770;7.298;2024-03-22T09:59:42;101038.53;;;14.17;51.34
43621;BME280;29213;50.770;7.298;2024-03-22T10:02:10;101015.25;;;14.18;51.38
43621;BME280;29213;50.770;7.298;2024-03-22T10:04:37;101031.69;;;14.38;50.14
43621;BME280;29213;50.770;7.298;2024-03-22T10:07:03;100977.97;;;14.08;49.05
43621;BME280;29213;50.770;7.298;2024-03-22T10:09:30;101019.66;;;14.34;49.26
43621;BME280;29213;50.770;7.298;2024-03-22T10:11:56;100967.47;;;14.06;48.73
43621;BME280;29213;50.770;7.298;2024-03-22T10:14:22;100946.91;;;13.98;49.53
43621;BME280;29213;50.770;7.298;2024-03-22T10:16:51;101014.72;;;14.46;48.99
43621;BME280;29213;50.770;7.298;2024-03-22T10:19:18;100975.25;;;14.39;48.73
43621;BME280;29213;50.770;7.298;2024-03-22T10:21:44;100951.19;;;14.31;47.67
43621;BME280;29213;50.770;7.298;2024-03-22T10:24:09;101009.28;;;14.77;48.07
43621;BME280;29213;50.770;7.298;2024-03-22T10:26:35;100967.59;;;14.51;47.09
43621;BME280;29213;50.770;7.298;2024-03-22T10:29:05;100936.91;;;14.39;47.87
43621;BME280;29213;50.770;7.298;2024-03-22T10:31:31;100949.22;;;14.48;47.65
43621;BME280;29213;50.770;7.298;2024-03-22T10:33:58;100966.66;;;14.67;47.29
43621;BME280;29213;50.770;7.298;2024-03-22T10:36:24;100994.69;;;14.95;47.95
43621;BME280;29213;50.770;7.298;2024-03-22T10:38:50;100974.78;;;14.89;46.81
43621;BME280;29213;50.770;7.298;2024-03-22T10:41:18;100982.50;;;15.07;46.73
43621;BME280;29213;50.770;7.298;2024-03-22T10:43:43;100986.31;;;15.13;46.62
43621;BME280;29213;50.770;7.298;2024-03-22T10:46:09;100968.66;;;15.04;46.28
43621;BME280;29213;50.770;7.298;2024-03-22T10:48:35;100959.56;;;15.05;46.76
43621;BME280;29213;50.770;7.298;2024-03-22T10:51:01;100979.75;;;15.16;46.56
43621;BME280;29213;50.770;7.298;2024-03-22T10:53:28;100937.91;;;14.91;46.39
43621;BME280;29213;50.770;7.298;2024-03-22T10:55:56;100973.53;;;15.15;46.10
43621;BME280;29213;50.770;7.298;2024-03-22T10:58:25;100930.78;;;14.99;46.80
43621;BME280;29213;50.770;7.298;2024-03-22T11:00:54;100921.53;;;15.01;46.97
43621;BME280;29213;50.770;7.298;2024-03-22T11:03:21;100929.16;;;15.13;46.92
43621;BME280;29213;50.770;7.298;2024-03-22T11:05:50;100953.09;;;15.29;46.97
43621;BME280;29213;50.770;7.298;2024-03-22T11:08:27;100931.81;;;15.13;46.62
43621;BME280;29213;50.770;7.298;2024-03-22T11:10:53;100954.00;;;15.36;46.66
43621;BME280;29213;50.770;7.298;2024-03-22T11:13:19;100932.19;;;15.40;47.26
43621;BME280;29213;50.770;7.298;2024-03-22T11:15:47;100874.19;;;15.08;45.94
43621;BME280;29213;50.770;7.298;2024-03-22T11:18:12;100933.47;;;15.44;46.72
43621;BME280;29213;50.770;7.298;2024-03-22T11:20:38;100934.56;;;15.49;47.23
43621;BME280;29213;50.770;7.298;2024-03-22T11:23:04;100929.28;;;15.56;46.27
43621;BME280;29213;50.770;7.298;2024-03-22T11:25:33;100930.31;;;15.55;44.93
43621;BME280;29213;50.770;7.298;2024-03-22T11:27:59;100873.53;;;15.21;44.32
43621;BME280;29213;50.770;7.298;2024-03-22T11:30:29;100862.00;;;15.21;44.34
43621;BME280;29213;50.770;7.298;2024-03-22T11:32:55;100831.00;;;15.03;43.54
43621;BME280;29213;50.770;7.298;2024-03-22T11:35:21;100904.94;;;15.58;44.19
43621;BME280;29213;50.770;7.298;2024-03-22T11:37:47;100908.97;;;15.69;43.92
43621;BME280;29213;50.770;7.298;2024-03-22T11:40:12;100907.31;;;15.68;43.46
43621;BME280;29213;50.770;7.298;2024-03-22T11:42:39;100859.31;;;15.43;43.96
43621;BME280;29213;50.770;7.298;2024-03-22T11:45:08;100900.28;;;15.88;43.41
43621;BME280;29213;50.770;7.298;2024-03-22T11:47:34;100795.06;;;15.34;43.58
43621;BME280;29213;50.770;7.298;2024-03-22T11:50:01;100858.09;;;16.04;42.66
43621;BME280;29213;50.770;7.298;2024-03-22T11:52:27;100851.44;;;16.22;42.70
43621;BME280;29213;50.770;7.298;2024-03-22T11:54:53;100825.00;;;16.32;42.47
43621;BME280;29213;50.770;7.298;2024-03-22T11:57:20;100837.22;;;16.63;42.64
43621;BME280;29213;50.770;7.298;2024-03-22T11:59:45;100809.84;;;16.53;41.49
43621;BME280;29213;50.770;7.298;2024-03-22T12:02:11;100808.75;;;16.40;40.78
43621;BME280;29213;50.770;7.298;2024-03-22T12:04:41;100860.66;;;16.41;39.85
43621;BME280;29213;50.770;7.298;2024-03-22T12:07:18;100824.44;;;16.08;41.31
43621;BME280;29213;50.770;7.298;2024-03-22T12:09:44;100877.16;;;16.38;41.33
43621;BME280;29213;50.770;7.298;2024-03-22T12:12:11;100867.44;;;16.37;39.70
43621;BME280;29213;50.770;7.298;2024-03-22T12:14:40;100846.59;;;16.10;40.11
43621;BME280;29213;50.770;7.298;2024-03-22T12:17:06;100869.88;;;16.32;41.16
43621;BME280;29213;50.770;7.298;2024-03-22T12:19:32;100862.88;;;16.37;41.01
43621;BME280;29213;50.770;7.298;2024-03-22T12:21:58;100801.47;;;16.06;40.94
43621;BME280;29213;50.770;7.298;2024-03-22T12:24:24;100854.81;;;16.37;40.47
43621;BME280;29213;50.770;7.298;2024-03-22T12:26:50;100853.72;;;16.25;39.91
43621;BME280;29213;50.770;7.298;2024-03-22T12:29:16;100843.13;;;16.16;40.23
43621;BME280;29213;50.770;7.298;2024-03-22T12:31:42;100827.53;;;16.05;40.26
43621;BME280;29213;50.770;7.298;2024-03-22T12:34:08;100756.13;;;15.67;40.28
43621;BME280;29213;50.770;7.298;2024-03-22T12:36:34;100836.53;;;16.26;40.12
43621;BME280;29213;50.770;7.298;2024-03-22T12:38:59;100795.28;;;16.05;39.99
43621;BME280;29213;50.770;7.298;2024-03-22T12:41:25;100832.69;;;16.35;40.46
43621;BME280;29213;50.770;7.298;2024-03-22T12:43:51;100784.78;;;16.10;40.46
43621;BME280;29213;50.770;7.298;2024-03-22T12:46:16;100802.50;;;16.05;41.41
43621;BME280;29213;50.770;7.298;2024-03-22T12:48:42;100751.06;;;15.79;41.51